Time,TemperatureF,DewpointF,PressureIn,WindDirection,WindDirectionDegrees,WindSpeedMPH,WindSpeedGustMPH,Humidity,HourlyPrecipIn,Conditions,Clouds,dailyrainin,SoftwareType,DateUTC
2013-04-30 00:01:00,48.0,43.4,30.51,ENE,67,2.0,5.0,84,0.00,,,0.00,Weather View 32 v70,2013-04-30 04:01:00,
2013-04-30 00:06:00,48.0,43.1,30.50,ENE,67,0.0,5.0,83,0.00,,,0.00,Weather View 32 v70,2013-04-30 04:06:00,
2013-04-30 00:11:00,47.0,42.1,30.50,ENE,67,0.0,5.0,83,0.00,,,0.00,Weather View 32 v70,2013-04-30 04:11:00,
2013-04-30 00:16:00,47.0,41.8,30.50,ENE,67,0.0,3.0,82,0.00,,,0.00,Weather View 32 v70,2013-04-30 04:16:00,
2013-04-30 00:21:00,47.0,42.4,30.50,ENE,67,0.0,3.0,84,0.00,,,0.00,Weather View 32 v70,2013-04-30 04:21:00,
2013-04-30 00:26:00,46.0,42.0,30.51,ENE,67,0.0,3.0,86,0.00,,,0.00,Weather View 32 v70,2013-04-30 04:26:00,
2013-04-30 00:31:00,46.0,42.0,30.51,ENE,67,2.0,3.0,86,0.00,,,0.00,Weather View 32 v70,2013-04-30 04:31:00,
2013-04-30 00:36:00,46.0,42.0,30.51,ENE,67,2.0,3.0,86,0.00,,,0.00,Weather View 32 v70,2013-04-30 04:36:00,
2013-04-30 00:41:00,46.0,42.3,30.51,ENE,67,0.0,3.0,87,0.00,,,0.00,Weather View 32 v70,2013-04-30 04:41:00,
2013-04-30 00:46:00,46.0,42.0,30.51,ENE,67,0.0,3.0,86,0.00,,,0.00,Weather View 32 v70,2013-04-30 04:46:00,
2013-04-30 00:51:00,45.0,41.4,30.51,ENE,67,0.0,3.0,87,0.00,,,0.00,Weather View 32 v70,2013-04-30 04:51:00,
2013-04-30 00:56:00,45.0,41.1,30.51,ENE,67,0.0,3.0,86,0.00,,,0.00,Weather View 32 v70,2013-04-30 04:56:00,
2013-04-30 01:01:00,45.0,41.9,30.51,ENE,67,0.0,3.0,89,0.00,,,0.00,Weather View 32 v70,2013-04-30 05:01:00,
2013-04-30 01:06:00,45.0,41.9,30.51,ENE,67,2.0,3.0,89,0.00,,,0.00,Weather View 32 v70,2013-04-30 05:06:00,
2013-04-30 01:11:00,45.0,42.2,30.51,ENE,67,1.0,3.0,90,0.00,,,0.00,Weather View 32 v70,2013-04-30 05:11:00,
2013-04-30 01:16:00,45.0,41.9,30.51,ENE,67,2.0,3.0,89,0.00,,,0.00,Weather View 32 v70,2013-04-30 05:16:00,
2013-04-30 01:21:00,45.0,42.2,30.51,ENE,67,2.0,3.0,90,0.00,,,0.00,Weather View 32 v70,2013-04-30 05:21:00,
2013-04-30 01:26:00,45.0,42.2,30.51,ENE,67,0.0,3.0,90,0.00,,,0.00,Weather View 32 v70,2013-04-30 05:26:00,
2013-04-30 01:31:00,44.0,41.3,30.51,ENE,67,0.0,3.0,90,0.00,,,0.00,Weather View 32 v70,2013-04-30 05:31:00,
2013-04-30 01:36:00,44.0,41.5,30.52,ENE,67,0.0,3.0,91,0.00,,,0.00,Weather View 32 v70,2013-04-30 05:36:00,
2013-04-30 01:41:00,44.0,41.5,30.52,ENE,67,0.0,3.0,91,0.00,,,0.00,Weather View 32 v70,2013-04-30 05:41:00,
2013-04-30 01:46:00,44.0,41.5,30.52,ENE,67,0.0,3.0,91,0.00,,,0.00,Weather View 32 v70,2013-04-30 05:46:00,
2013-04-30 01:51:00,44.0,42.1,30.52,ENE,67,2.0,3.0,93,0.00,,,0.00,Weather View 32 v70,2013-04-30 05:51:00,
2013-04-30 01:56:00,45.0,42.5,30.50,ENE,67,3.0,3.0,91,0.00,,,0.00,Weather View 32 v70,2013-04-30 05:56:00,
2013-04-30 02:01:00,46.0,43.5,30.50,ENE,67,0.0,3.0,91,0.00,,,0.00,Weather View 32 v70,2013-04-30 06:01:00,
2013-04-30 02:07:00,46.0,43.5,30.50,ENE,67,2.0,3.0,91,0.00,,,0.00,Weather View 32 v70,2013-04-30 06:07:00,
2013-04-30 02:12:00,46.0,42.9,30.50,ENE,67,1.0,3.0,89,0.00,,,0.00,Weather View 32 v70,2013-04-30 06:12:00,
2013-04-30 02:17:00,47.0,43.6,30.49,ENE,67,0.0,3.0,88,0.00,,,0.00,Weather View 32 v70,2013-04-30 06:17:00,
2013-04-30 02:22:00,47.0,43.9,30.49,ENE,67,0.0,3.0,89,0.00,,,0.00,Weather View 32 v70,2013-04-30 06:22:00,
2013-04-30 02:27:00,47.0,43.3,30.49,ENE,67,0.0,3.0,87,0.00,,,0.00,Weather View 32 v70,2013-04-30 06:27:00,
2013-04-30 02:32:00,47.0,43.3,30.49,ENE,67,0.0,3.0,87,0.00,,,0.00,Weather View 32 v70,2013-04-30 06:32:00,
2013-04-30 02:37:00,47.0,43.3,30.49,ENE,67,0.0,3.0,87,0.00,,,0.00,Weather View 32 v70,2013-04-30 06:37:00,
2013-04-30 02:42:00,47.0,43.3,30.49,ENE,67,0.0,3.0,87,0.00,,,0.00,Weather View 32 v70,2013-04-30 06:42:00,
2013-04-30 02:47:00,47.0,43.3,30.49,ENE,67,0.0,3.0,87,0.00,,,0.00,Weather View 32 v70,2013-04-30 06:47:00,
2013-04-30 02:52:00,47.0,43.3,30.49,ENE,67,1.0,3.0,87,0.00,,,0.00,Weather View 32 v70,2013-04-30 06:52:00,
2013-04-30 02:57:00,48.0,44.6,30.49,ENE,67,1.0,3.0,88,0.00,,,0.00,Weather View 32 v70,2013-04-30 06:57:00,
2013-04-30 03:02:00,48.0,44.3,30.49,ENE,67,1.0,3.0,87,0.00,,,0.00,Weather View 32 v70,2013-04-30 07:02:00,
2013-04-30 03:07:00,48.0,44.0,30.49,ENE,67,1.0,3.0,86,0.00,,,0.00,Weather View 32 v70,2013-04-30 07:07:00,
2013-04-30 03:12:00,48.0,44.3,30.49,ENE,67,2.0,3.0,87,0.00,,,0.00,Weather View 32 v70,2013-04-30 07:12:00,
2013-04-30 03:17:00,48.0,43.4,30.49,ENE,67,2.0,3.0,84,0.00,,,0.00,Weather View 32 v70,2013-04-30 07:17:00,
2013-04-30 03:22:00,48.0,43.7,30.49,ENE,67,2.0,3.0,85,0.00,,,0.00,Weather View 32 v70,2013-04-30 07:22:00,
2013-04-30 03:27:00,48.0,43.7,30.49,ENE,67,0.0,3.0,85,0.00,,,0.00,Weather View 32 v70,2013-04-30 07:27:00,
2013-04-30 03:32:00,48.0,43.7,30.49,ENE,67,0.0,3.0,85,0.00,,,0.00,Weather View 32 v70,2013-04-30 07:32:00,
2013-04-30 03:37:00,48.0,43.7,30.49,ENE,67,1.0,3.0,85,0.00,,,0.00,Weather View 32 v70,2013-04-30 07:37:00,
2013-04-30 03:42:00,48.0,43.7,30.49,ENE,67,1.0,3.0,85,0.00,,,0.00,Weather View 32 v70,2013-04-30 07:42:00,
2013-04-30 03:47:00,48.0,43.7,30.49,ENE,67,1.0,3.0,85,0.00,,,0.00,Weather View 32 v70,2013-04-30 07:47:00,
2013-04-30 03:52:00,48.0,43.7,30.49,ENE,67,0.0,3.0,85,0.00,,,0.00,Weather View 32 v70,2013-04-30 07:52:00,
2013-04-30 03:57:00,48.0,44.0,30.49,ENE,67,0.0,3.0,86,0.00,,,0.00,Weather View 32 v70,2013-04-30 07:57:00,
2013-04-30 04:02:00,47.0,43.0,30.49,ENE,67,0.0,3.0,86,0.00,,,0.00,Weather View 32 v70,2013-04-30 08:02:00,
2013-04-30 04:07:00,47.0,42.7,30.50,ENE,67,0.0,3.0,85,0.00,,,0.00,Weather View 32 v70,2013-04-30 08:07:00,
2013-04-30 04:12:00,47.0,43.0,30.50,ENE,67,0.0,3.0,86,0.00,,,0.00,Weather View 32 v70,2013-04-30 08:12:00,
2013-04-30 04:17:00,47.0,42.7,30.50,ENE,67,1.0,3.0,85,0.00,,,0.00,Weather View 32 v70,2013-04-30 08:17:00,
2013-04-30 04:22:00,46.0,42.0,30.50,ENE,67,1.0,3.0,86,0.00,,,0.00,Weather View 32 v70,2013-04-30 08:22:00,
2013-04-30 04:27:00,46.0,42.0,30.50,ENE,67,1.0,2.0,86,0.00,,,0.00,Weather View 32 v70,2013-04-30 08:27:00,
2013-04-30 04:32:00,46.0,42.0,30.50,ENE,67,0.0,2.0,86,0.00,,,0.00,Weather View 32 v70,2013-04-30 08:32:00,
2013-04-30 04:37:00,46.0,42.0,30.50,ENE,67,0.0,2.0,86,0.00,,,0.00,Weather View 32 v70,2013-04-30 08:37:00,
2013-04-30 04:42:00,46.0,42.3,30.50,ENE,67,0.0,2.0,87,0.00,,,0.00,Weather View 32 v70,2013-04-30 08:42:00,
2013-04-30 04:47:00,46.0,42.0,30.51,ENE,67,0.0,2.0,86,0.00,,,0.00,Weather View 32 v70,2013-04-30 08:47:00,
2013-04-30 04:52:00,46.0,42.3,30.51,ENE,67,0.0,2.0,87,0.00,,,0.00,Weather View 32 v70,2013-04-30 08:52:00,
2013-04-30 04:57:00,46.0,42.3,30.51,ENE,67,0.0,2.0,87,0.00,,,0.00,Weather View 32 v70,2013-04-30 08:57:00,
2013-04-30 05:02:00,46.0,42.6,30.51,ENE,67,1.0,2.0,88,0.00,,,0.00,Weather View 32 v70,2013-04-30 09:02:00,
2013-04-30 05:07:00,46.0,41.4,30.51,ENE,67,2.0,3.0,84,0.00,,,0.00,Weather View 32 v70,2013-04-30 09:07:00,
2013-04-30 05:12:00,47.0,41.8,30.51,ENE,67,1.0,3.0,82,0.00,,,0.00,Weather View 32 v70,2013-04-30 09:12:00,
2013-04-30 05:17:00,47.0,41.8,30.50,ENE,67,2.0,3.0,82,0.00,,,0.00,Weather View 32 v70,2013-04-30 09:17:00,
2013-04-30 05:22:00,47.0,42.1,30.50,ENE,67,1.0,3.0,83,0.00,,,0.00,Weather View 32 v70,2013-04-30 09:22:00,
2013-04-30 05:27:00,47.0,42.4,30.51,ENE,67,0.0,3.0,84,0.00,,,0.00,Weather View 32 v70,2013-04-30 09:27:00,
2013-04-30 05:32:00,47.0,42.7,30.51,ENE,67,2.0,3.0,85,0.00,,,0.00,Weather View 32 v70,2013-04-30 09:32:00,
2013-04-30 05:37:00,47.0,41.8,30.51,ENE,67,2.0,3.0,82,0.00,,,0.00,Weather View 32 v70,2013-04-30 09:37:00,
2013-04-30 05:42:00,47.0,41.8,30.51,ENE,67,2.0,3.0,82,0.00,,,0.00,Weather View 32 v70,2013-04-30 09:42:00,
2013-04-30 05:47:00,47.0,41.8,30.51,ENE,67,1.0,3.0,82,0.00,,,0.00,Weather View 32 v70,2013-04-30 09:47:00,
2013-04-30 05:52:00,47.0,41.5,30.51,ENE,67,2.0,3.0,81,0.00,,,0.00,Weather View 32 v70,2013-04-30 09:52:00,
2013-04-30 05:57:00,47.0,41.1,30.52,ENE,67,2.0,3.0,80,0.00,,,0.00,Weather View 32 v70,2013-04-30 09:57:00,
2013-04-30 06:02:00,47.0,41.5,30.52,ENE,67,2.0,3.0,81,0.00,,,0.00,Weather View 32 v70,2013-04-30 10:02:00,
2013-04-30 06:07:00,47.0,41.8,30.52,ENE,67,0.0,3.0,82,0.00,,,0.00,Weather View 32 v70,2013-04-30 10:07:00,
2013-04-30 06:12:00,47.0,41.8,30.52,ENE,67,1.0,3.0,82,0.00,,,0.00,Weather View 32 v70,2013-04-30 10:12:00,
2013-04-30 06:17:00,47.0,41.8,30.52,ENE,67,0.0,3.0,82,0.00,,,0.00,Weather View 32 v70,2013-04-30 10:17:00,
2013-04-30 06:22:00,47.0,42.7,30.52,ENE,67,1.0,3.0,85,0.00,,,0.00,Weather View 32 v70,2013-04-30 10:22:00,
2013-04-30 06:27:00,47.0,42.4,30.52,ENE,67,0.0,3.0,84,0.00,,,0.00,Weather View 32 v70,2013-04-30 10:27:00,
2013-04-30 06:32:00,47.0,41.8,30.52,ENE,67,2.0,3.0,82,0.00,,,0.00,Weather View 32 v70,2013-04-30 10:32:00,
2013-04-30 06:37:00,48.0,43.4,30.52,ENE,67,1.0,3.0,84,0.00,,,0.00,Weather View 32 v70,2013-04-30 10:37:00,
2013-04-30 06:42:00,48.0,41.8,30.52,ENE,67,1.0,3.0,79,0.00,,,0.00,Weather View 32 v70,2013-04-30 10:42:00,
2013-04-30 06:47:00,49.0,40.7,30.52,ENE,67,2.0,4.0,73,0.00,,,0.00,Weather View 32 v70,2013-04-30 10:47:00,
2013-04-30 06:52:00,49.0,40.7,30.52,ENE,67,2.0,4.0,73,0.00,,,0.00,Weather View 32 v70,2013-04-30 10:52:00,
2013-04-30 06:57:00,50.0,41.3,30.52,ENE,67,4.0,5.0,72,0.00,,,0.00,Weather View 32 v70,2013-04-30 10:57:00,
2013-04-30 07:02:00,50.0,40.2,30.52,ENE,67,3.0,5.0,69,0.00,,,0.00,Weather View 32 v70,2013-04-30 11:02:00,
2013-04-30 07:07:00,51.0,41.2,30.52,ENE,67,2.0,5.0,69,0.00,,,0.00,Weather View 32 v70,2013-04-30 11:07:00,
2013-04-30 07:12:00,51.0,40.8,30.52,NE,45,5.0,5.0,68,0.00,,,0.00,Weather View 32 v70,2013-04-30 11:12:00,
2013-04-30 07:17:00,51.0,40.8,30.52,NE,45,2.0,5.0,68,0.00,,,0.00,Weather View 32 v70,2013-04-30 11:17:00,
2013-04-30 07:22:00,52.0,41.0,30.52,East,90,4.0,6.0,66,0.00,,,0.00,Weather View 32 v70,2013-04-30 11:22:00,
2013-04-30 07:27:00,52.0,39.8,30.52,NE,45,6.0,6.0,63,0.00,,,0.00,Weather View 32 v70,2013-04-30 11:27:00,
2013-04-30 07:32:00,53.0,41.1,30.52,NE,45,2.0,6.0,64,0.00,,,0.00,Weather View 32 v70,2013-04-30 11:32:00,
2013-04-30 07:37:00,54.0,40.4,30.52,NE,45,2.0,7.0,60,0.00,,,0.00,Weather View 32 v70,2013-04-30 11:37:00,
2013-04-30 07:42:00,54.0,40.0,30.52,East,90,3.0,7.0,59,0.00,,,0.00,Weather View 32 v70,2013-04-30 11:42:00,
2013-04-30 07:47:00,54.0,38.6,30.52,NE,45,3.0,7.0,56,0.00,,,0.00,Weather View 32 v70,2013-04-30 11:47:00,
2013-04-30 07:52:00,54.0,38.6,30.52,ENE,67,4.0,7.0,56,0.00,,,0.00,Weather View 32 v70,2013-04-30 11:52:00,
2013-04-30 07:57:00,54.0,38.2,30.52,ENE,67,2.0,7.0,55,0.00,,,0.00,Weather View 32 v70,2013-04-30 11:57:00,
2013-04-30 08:02:00,54.0,38.6,30.52,NE,45,3.0,7.0,56,0.00,,,0.00,Weather View 32 v70,2013-04-30 12:02:00,
2013-04-30 08:07:00,55.0,38.6,30.51,ESE,112,2.0,7.0,54,0.00,,,0.00,Weather View 32 v70,2013-04-30 12:07:00,
2013-04-30 08:12:00,55.0,39.6,30.51,ENE,67,0.0,7.0,56,0.00,,,0.00,Weather View 32 v70,2013-04-30 12:12:00,
2013-04-30 08:17:00,56.0,39.1,30.51,East,90,5.0,7.0,53,0.00,,,0.00,Weather View 32 v70,2013-04-30 12:17:00,
2013-04-30 08:22:00,56.0,37.6,30.51,East,90,0.0,7.0,50,0.00,,,0.00,Weather View 32 v70,2013-04-30 12:22:00,
2013-04-30 08:27:00,56.0,37.6,30.52,East,90,3.0,7.0,50,0.00,,,0.00,Weather View 32 v70,2013-04-30 12:27:00,
2013-04-30 08:32:00,56.0,37.1,30.52,SE,135,2.0,7.0,49,0.00,,,0.00,Weather View 32 v70,2013-04-30 12:32:00,
2013-04-30 08:37:00,56.0,36.5,30.52,SE,135,2.0,7.0,48,0.00,,,0.00,Weather View 32 v70,2013-04-30 12:37:00,
2013-04-30 08:42:00,56.0,37.1,30.52,East,90,0.0,7.0,49,0.00,,,0.00,Weather View 32 v70,2013-04-30 12:42:00,
2013-04-30 08:47:00,57.0,38.0,30.52,NE,45,3.0,7.0,49,0.00,,,0.00,Weather View 32 v70,2013-04-30 12:47:00,
2013-04-30 08:52:00,57.0,36.4,30.52,NE,45,6.0,7.0,46,0.00,,,0.00,Weather View 32 v70,2013-04-30 12:52:00,
2013-04-30 08:57:00,57.0,37.5,30.52,SE,135,2.0,6.0,48,0.00,,,0.00,Weather View 32 v70,2013-04-30 12:57:00,
2013-04-30 09:02:00,58.0,36.7,30.52,East,90,1.0,6.0,45,0.00,,,0.00,Weather View 32 v70,2013-04-30 13:02:00,
2013-04-30 09:07:00,59.0,37.1,30.52,ENE,67,5.0,6.0,44,0.00,,,0.00,Weather View 32 v70,2013-04-30 13:07:00,
2013-04-30 09:12:00,58.0,35.6,30.52,ESE,112,1.0,6.0,43,0.00,,,0.00,Weather View 32 v70,2013-04-30 13:12:00,
2013-04-30 09:17:00,59.0,37.1,30.52,SE,135,0.0,7.0,44,0.00,,,0.00,Weather View 32 v70,2013-04-30 13:17:00,
2013-04-30 09:22:00,58.0,37.8,30.52,SE,135,2.0,7.0,47,0.00,,,0.00,Weather View 32 v70,2013-04-30 13:22:00,
2013-04-30 09:27:00,59.0,37.1,30.52,SE,135,2.0,9.0,44,0.00,,,0.00,Weather View 32 v70,2013-04-30 13:27:00,
2013-04-30 09:32:00,59.0,39.8,30.52,SSE,157,4.0,9.0,49,0.00,,,0.00,Weather View 32 v70,2013-04-30 13:32:00,
2013-04-30 09:37:00,58.0,37.8,30.53,ENE,67,7.0,9.0,47,0.00,,,0.00,Weather View 32 v70,2013-04-30 13:37:00,
2013-04-30 09:42:00,56.0,39.6,30.53,SE,135,6.0,9.0,54,0.00,,,0.00,Weather View 32 v70,2013-04-30 13:42:00,
2013-04-30 09:47:00,56.0,40.0,30.54,North,360,1.0,9.0,55,0.00,,,0.00,Weather View 32 v70,2013-04-30 13:47:00,
2013-04-30 09:52:00,57.0,39.0,30.54,South,180,0.0,9.0,51,0.00,,,0.00,Weather View 32 v70,2013-04-30 13:52:00,
2013-04-30 09:57:00,57.0,38.0,30.53,East,90,2.0,9.0,49,0.00,,,0.00,Weather View 32 v70,2013-04-30 13:57:00,
2013-04-30 10:02:00,57.0,38.5,30.53,ESE,112,5.0,9.0,50,0.00,,,0.00,Weather View 32 v70,2013-04-30 14:02:00,
2013-04-30 10:07:00,57.0,39.5,30.54,ESE,112,1.0,9.0,52,0.00,,,0.00,Weather View 32 v70,2013-04-30 14:07:00,
2013-04-30 10:12:00,57.0,40.5,30.54,SSW,202,5.0,9.0,54,0.00,,,0.00,Weather View 32 v70,2013-04-30 14:12:00,
2013-04-30 10:17:00,57.0,39.0,30.54,SE,135,1.0,9.0,51,0.00,,,0.00,Weather View 32 v70,2013-04-30 14:17:00,
2013-04-30 10:22:00,58.0,39.9,30.54,ENE,67,1.0,9.0,51,0.00,,,0.00,Weather View 32 v70,2013-04-30 14:22:00,
2013-04-30 10:27:00,58.0,39.9,30.53,SSE,157,0.0,9.0,51,0.00,,,0.00,Weather View 32 v70,2013-04-30 14:27:00,
2013-04-30 10:32:00,58.0,38.9,30.53,SE,135,1.0,9.0,49,0.00,,,0.00,Weather View 32 v70,2013-04-30 14:32:00,
2013-04-30 10:37:00,58.0,39.9,30.54,NE,45,4.0,9.0,51,0.00,,,0.00,Weather View 32 v70,2013-04-30 14:37:00,
2013-04-30 10:42:00,57.0,39.5,30.54,ESE,112,4.0,9.0,52,0.00,,,0.00,Weather View 32 v70,2013-04-30 14:42:00,
2013-04-30 10:47:00,57.0,38.5,30.54,SSE,157,4.0,10.0,50,0.00,,,0.00,Weather View 32 v70,2013-04-30 14:47:00,
2013-04-30 10:52:00,58.0,39.9,30.54,ESE,112,2.0,10.0,51,0.00,,,0.00,Weather View 32 v70,2013-04-30 14:52:00,
2013-04-30 10:57:00,58.0,41.4,30.54,South,180,2.0,10.0,54,0.00,,,0.00,Weather View 32 v70,2013-04-30 14:57:00,
2013-04-30 11:03:00,58.0,39.4,30.54,SW,225,1.0,10.0,50,0.00,,,0.00,Weather View 32 v70,2013-04-30 15:03:00,
2013-04-30 11:08:00,58.0,39.9,30.53,NE,45,4.0,10.0,51,0.00,,,0.00,Weather View 32 v70,2013-04-30 15:08:00,
2013-04-30 11:13:00,58.0,40.4,30.53,SSE,157,2.0,10.0,52,0.00,,,0.00,Weather View 32 v70,2013-04-30 15:13:00,
2013-04-30 11:18:00,57.0,39.5,30.53,NE,45,6.0,10.0,52,0.00,,,0.00,Weather View 32 v70,2013-04-30 15:18:00,
2013-04-30 11:23:00,58.0,39.9,30.53,East,90,5.0,10.0,51,0.00,,,0.00,Weather View 32 v70,2013-04-30 15:23:00,
2013-04-30 11:28:00,59.0,40.9,30.53,SSE,157,6.0,10.0,51,0.00,,,0.00,Weather View 32 v70,2013-04-30 15:28:00,
2013-04-30 11:33:00,59.0,39.8,30.53,East,90,6.0,10.0,49,0.00,,,0.00,Weather View 32 v70,2013-04-30 15:33:00,
2013-04-30 11:38:00,59.0,40.3,30.53,SE,135,3.0,10.0,50,0.00,,,0.00,Weather View 32 v70,2013-04-30 15:38:00,
2013-04-30 11:43:00,58.0,38.9,30.53,East,90,3.0,10.0,49,0.00,,,0.00,Weather View 32 v70,2013-04-30 15:43:00,
2013-04-30 11:48:00,58.0,40.4,30.54,ENE,67,6.0,10.0,52,0.00,,,0.00,Weather View 32 v70,2013-04-30 15:48:00,
2013-04-30 11:53:00,57.0,40.5,30.54,ENE,67,3.0,10.0,54,0.00,,,0.00,Weather View 32 v70,2013-04-30 15:53:00,
2013-04-30 11:58:00,57.0,41.9,30.53,ENE,67,5.0,10.0,57,0.00,,,0.00,Weather View 32 v70,2013-04-30 15:58:00,
2013-04-30 12:03:00,57.0,41.9,30.53,East,90,2.0,10.0,57,0.00,,,0.00,Weather View 32 v70,2013-04-30 16:03:00,
2013-04-30 12:08:00,58.0,43.7,30.53,East,90,2.0,10.0,59,0.00,,,0.00,Weather View 32 v70,2013-04-30 16:08:00,
2013-04-30 12:13:00,58.0,43.3,30.53,NE,45,4.0,9.0,58,0.00,,,0.00,Weather View 32 v70,2013-04-30 16:13:00,
2013-04-30 12:18:00,59.0,43.3,30.53,NNE,22,1.0,9.0,56,0.00,,,0.00,Weather View 32 v70,2013-04-30 16:18:00,
2013-04-30 12:23:00,58.0,41.4,30.53,East,90,1.0,9.0,54,0.00,,,0.00,Weather View 32 v70,2013-04-30 16:23:00,
2013-04-30 12:28:00,58.0,42.4,30.54,East,90,2.0,9.0,56,0.00,,,0.00,Weather View 32 v70,2013-04-30 16:28:00,
2013-04-30 12:33:00,59.0,41.4,30.54,East,90,2.0,9.0,52,0.00,,,0.00,Weather View 32 v70,2013-04-30 16:33:00,
2013-04-30 12:38:00,59.0,41.4,30.53,SE,135,4.0,9.0,52,0.00,,,0.00,Weather View 32 v70,2013-04-30 16:38:00,
2013-04-30 12:43:00,58.0,37.3,30.53,East,90,2.0,9.0,46,0.00,,,0.00,Weather View 32 v70,2013-04-30 16:43:00,
2013-04-30 12:48:00,59.0,39.3,30.53,NE,45,5.0,9.0,48,0.00,,,0.00,Weather View 32 v70,2013-04-30 16:48:00,
2013-04-30 12:53:00,59.0,35.3,30.53,ENE,67,1.0,9.0,41,0.00,,,0.00,Weather View 32 v70,2013-04-30 16:53:00,
2013-04-30 12:58:00,60.0,34.3,30.52,SSW,202,0.0,9.0,38,0.00,,,0.00,Weather View 32 v70,2013-04-30 16:58:00,
2013-04-30 13:03:00,60.0,33.6,30.52,ENE,67,4.0,9.0,37,0.00,,,0.00,Weather View 32 v70,2013-04-30 17:03:00,
2013-04-30 13:08:00,60.0,36.8,30.52,East,90,1.0,9.0,42,0.00,,,0.00,Weather View 32 v70,2013-04-30 17:08:00,
2013-04-30 13:13:00,60.0,38.0,30.52,SSW,202,0.0,9.0,44,0.00,,,0.00,Weather View 32 v70,2013-04-30 17:13:00,
2013-04-30 13:18:00,60.0,38.0,30.52,East,90,1.0,9.0,44,0.00,,,0.00,Weather View 32 v70,2013-04-30 17:18:00,
2013-04-30 13:23:00,60.0,40.7,30.52,ESE,112,2.0,9.0,49,0.00,,,0.00,Weather View 32 v70,2013-04-30 17:23:00,
2013-04-30 13:28:00,61.0,35.8,30.52,East,90,1.0,9.0,39,0.00,,,0.00,Weather View 32 v70,2013-04-30 17:28:00,
2013-04-30 13:33:00,59.0,34.0,30.52,SSW,202,6.0,9.0,39,0.00,,,0.00,Weather View 32 v70,2013-04-30 17:33:00,
2013-04-30 13:38:00,59.0,33.4,30.52,WNW,292,1.0,9.0,38,0.00,,,0.00,Weather View 32 v70,2013-04-30 17:38:00,
2013-04-30 13:43:00,60.0,34.3,30.52,SE,135,0.0,9.0,38,0.00,,,0.00,Weather View 32 v70,2013-04-30 17:43:00,
2013-04-30 13:48:00,61.0,30.1,30.52,SSE,157,4.0,9.0,31,0.00,,,0.00,Weather View 32 v70,2013-04-30 17:48:00,
2013-04-30 13:53:00,61.0,30.9,30.52,SW,225,2.0,9.0,32,0.00,,,0.00,Weather View 32 v70,2013-04-30 17:53:00,
2013-04-30 13:58:00,62.0,30.1,30.51,SSE,157,2.0,9.0,30,0.00,,,0.00,Weather View 32 v70,2013-04-30 17:58:00,
2013-04-30 14:03:00,62.0,29.3,30.51,North,360,1.0,9.0,29,0.00,,,0.00,Weather View 32 v70,2013-04-30 18:03:00,
2013-04-30 14:08:00,62.0,34.7,30.51,South,180,6.0,9.0,36,0.00,,,0.00,Weather View 32 v70,2013-04-30 18:08:00,
2013-04-30 14:13:00,62.0,35.4,30.51,South,180,3.0,9.0,37,0.00,,,0.00,Weather View 32 v70,2013-04-30 18:13:00,
2013-04-30 14:18:00,61.0,33.8,30.52,SE,135,1.0,9.0,36,0.00,,,0.00,Weather View 32 v70,2013-04-30 18:18:00,
2013-04-30 14:23:00,62.0,32.5,30.52,South,180,5.0,9.0,33,0.00,,,0.00,Weather View 32 v70,2013-04-30 18:23:00,
2013-04-30 14:28:00,61.0,31.6,30.51,SSE,157,7.0,9.0,33,0.00,,,0.00,Weather View 32 v70,2013-04-30 18:28:00,
2013-04-30 14:33:00,60.0,30.8,30.51,East,90,6.0,9.0,33,0.00,,,0.00,Weather View 32 v70,2013-04-30 18:33:00,
2013-04-30 14:38:00,60.0,32.2,30.52,East,90,7.0,9.0,35,0.00,,,0.00,Weather View 32 v70,2013-04-30 18:38:00,
2013-04-30 14:43:00,59.0,30.6,30.52,SSE,157,1.0,9.0,34,0.00,,,0.00,Weather View 32 v70,2013-04-30 18:43:00,
2013-04-30 14:48:00,60.0,31.5,30.52,SSE,157,5.0,9.0,34,0.00,,,0.00,Weather View 32 v70,2013-04-30 18:48:00,
2013-04-30 14:53:00,61.0,31.6,30.52,South,180,1.0,9.0,33,0.00,,,0.00,Weather View 32 v70,2013-04-30 18:53:00,
2013-04-30 14:58:00,61.0,31.6,30.51,SE,135,4.0,9.0,33,0.00,,,0.00,Weather View 32 v70,2013-04-30 18:58:00,
2013-04-30 15:03:00,61.0,31.6,30.51,NE,45,6.0,9.0,33,0.00,,,0.00,Weather View 32 v70,2013-04-30 19:03:00,
2013-04-30 15:08:00,61.0,31.6,30.51,ESE,112,1.0,9.0,33,0.00,,,0.00,Weather View 32 v70,2013-04-30 19:08:00,
2013-04-30 15:13:00,60.0,31.5,30.51,ESE,112,1.0,9.0,34,0.00,,,0.00,Weather View 32 v70,2013-04-30 19:13:00,
2013-04-30 15:18:00,61.0,31.6,30.51,SSE,157,3.0,9.0,33,0.00,,,0.00,Weather View 32 v70,2013-04-30 19:18:00,
2013-04-30 15:24:00,61.0,32.4,30.51,East,90,5.0,9.0,34,0.00,,,0.00,Weather View 32 v70,2013-04-30 19:24:00,
2013-04-30 15:29:00,60.0,32.9,30.51,SE,135,0.0,9.0,36,0.00,,,0.00,Weather View 32 v70,2013-04-30 19:29:00,
2013-04-30 15:34:00,61.0,30.9,30.51,ENE,67,5.0,9.0,32,0.00,,,0.00,Weather View 32 v70,2013-04-30 19:34:00,
2013-04-30 15:39:00,60.0,33.6,30.50,SSE,157,3.0,9.0,37,0.00,,,0.00,Weather View 32 v70,2013-04-30 19:39:00,
2013-04-30 15:44:00,60.0,32.2,30.50,East,90,4.0,9.0,35,0.00,,,0.00,Weather View 32 v70,2013-04-30 19:44:00,
2013-04-30 15:49:00,60.0,34.9,30.51,ENE,67,3.0,9.0,39,0.00,,,0.00,Weather View 32 v70,2013-04-30 19:49:00,
2013-04-30 15:54:00,59.0,33.4,30.51,NE,45,4.0,9.0,38,0.00,,,0.00,Weather View 32 v70,2013-04-30 19:54:00,
2013-04-30 15:59:00,60.0,33.6,30.51,SSE,157,6.0,11.0,37,0.00,,,0.00,Weather View 32 v70,2013-04-30 19:59:00,
2013-04-30 16:04:00,60.0,34.9,30.51,South,180,4.0,11.0,39,0.00,,,0.00,Weather View 32 v70,2013-04-30 20:04:00,
2013-04-30 16:09:00,60.0,33.6,30.51,SE,135,1.0,11.0,37,0.00,,,0.00,Weather View 32 v70,2013-04-30 20:09:00,
2013-04-30 16:14:00,60.0,35.6,30.51,ENE,67,3.0,11.0,40,0.00,,,0.00,Weather View 32 v70,2013-04-30 20:14:00,
2013-04-30 16:19:00,60.0,35.6,30.51,SSE,157,7.0,11.0,40,0.00,,,0.00,Weather View 32 v70,2013-04-30 20:19:00,
2013-04-30 16:24:00,59.0,34.7,30.51,South,180,1.0,11.0,40,0.00,,,0.00,Weather View 32 v70,2013-04-30 20:24:00,
2013-04-30 16:29:00,60.0,36.8,30.52,South,180,5.0,11.0,42,0.00,,,0.00,Weather View 32 v70,2013-04-30 20:29:00,
2013-04-30 16:34:00,58.0,35.0,30.52,East,90,1.0,11.0,42,0.00,,,0.00,Weather View 32 v70,2013-04-30 20:34:00,
2013-04-30 16:39:00,59.0,34.7,30.52,East,90,2.0,11.0,40,0.00,,,0.00,Weather View 32 v70,2013-04-30 20:39:00,
2013-04-30 16:44:00,59.0,34.0,30.52,SSW,202,1.0,11.0,39,0.00,,,0.00,Weather View 32 v70,2013-04-30 20:44:00,
2013-04-30 16:49:00,58.0,32.5,30.52,East,90,2.0,11.0,38,0.00,,,0.00,Weather View 32 v70,2013-04-30 20:49:00,
2013-04-30 16:54:00,59.0,34.7,30.52,SSE,157,3.0,11.0,40,0.00,,,0.00,Weather View 32 v70,2013-04-30 20:54:00,
2013-04-30 16:59:00,59.0,34.0,30.52,East,90,1.0,9.0,39,0.00,,,0.00,Weather View 32 v70,2013-04-30 20:59:00,
2013-04-30 17:04:00,60.0,36.2,30.52,South,180,3.0,9.0,41,0.00,,,0.00,Weather View 32 v70,2013-04-30 21:04:00,
2013-04-30 17:09:00,59.0,34.7,30.52,SSW,202,4.0,9.0,40,0.00,,,0.00,Weather View 32 v70,2013-04-30 21:09:00,
2013-04-30 17:14:00,60.0,36.8,30.52,SSW,202,2.0,9.0,42,0.00,,,0.00,Weather View 32 v70,2013-04-30 21:14:00,
2013-04-30 17:19:00,60.0,36.2,30.52,SSE,157,4.0,9.0,41,0.00,,,0.00,Weather View 32 v70,2013-04-30 21:19:00,
2013-04-30 17:24:00,60.0,36.8,30.52,SSW,202,0.0,9.0,42,0.00,,,0.00,Weather View 32 v70,2013-04-30 21:24:00,
2013-04-30 17:29:00,61.0,35.8,30.51,SSW,202,2.0,8.0,39,0.00,,,0.00,Weather View 32 v70,2013-04-30 21:29:00,
2013-04-30 17:34:00,61.0,37.1,30.51,SSW,202,4.0,8.0,41,0.00,,,0.00,Weather View 32 v70,2013-04-30 21:34:00,
2013-04-30 17:39:00,61.0,36.5,30.52,ESE,112,3.0,8.0,40,0.00,,,0.00,Weather View 32 v70,2013-04-30 21:39:00,
2013-04-30 17:44:00,61.0,35.2,30.52,WSW,247,0.0,8.0,38,0.00,,,0.00,Weather View 32 v70,2013-04-30 21:44:00,
2013-04-30 17:49:00,61.0,35.2,30.52,SE,135,2.0,7.0,38,0.00,,,0.00,Weather View 32 v70,2013-04-30 21:49:00,
2013-04-30 17:54:00,60.0,32.9,30.52,East,90,4.0,7.0,36,0.00,,,0.00,Weather View 32 v70,2013-04-30 21:54:00,
2013-04-30 17:59:00,60.0,32.9,30.52,South,180,0.0,7.0,36,0.00,,,0.00,Weather View 32 v70,2013-04-30 21:59:00,
2013-04-30 18:04:00,60.0,32.2,30.52,SE,135,6.0,7.0,35,0.00,,,0.00,Weather View 32 v70,2013-04-30 22:04:00,
2013-04-30 18:09:00,59.0,32.0,30.53,SSW,202,1.0,7.0,36,0.00,,,0.00,Weather View 32 v70,2013-04-30 22:09:00,
2013-04-30 18:14:00,58.0,32.5,30.53,SSW,202,0.0,7.0,38,0.00,,,0.00,Weather View 32 v70,2013-04-30 22:14:00,
2013-04-30 18:20:00,57.0,32.2,30.53,ESE,112,0.0,7.0,39,0.00,,,0.00,Weather View 32 v70,2013-04-30 22:20:00,
2013-04-30 18:25:00,57.0,32.2,30.53,SSW,202,2.0,7.0,39,0.00,,,0.00,Weather View 32 v70,2013-04-30 22:25:00,
2013-04-30 18:30:00,57.0,37.5,30.54,SSW,202,4.0,7.0,48,0.00,,,0.00,Weather View 32 v70,2013-04-30 22:30:00,
2013-04-30 18:35:00,56.0,38.1,30.54,SW,225,0.0,7.0,51,0.00,,,0.00,Weather View 32 v70,2013-04-30 22:35:00,
2013-04-30 18:40:00,55.0,35.1,30.54,SSW,202,1.0,7.0,47,0.00,,,0.00,Weather View 32 v70,2013-04-30 22:40:00,
2013-04-30 18:45:00,55.0,35.6,30.54,SSW,202,1.0,7.0,48,0.00,,,0.00,Weather View 32 v70,2013-04-30 22:45:00,
2013-04-30 18:50:00,54.0,32.5,30.55,SSW,202,0.0,6.0,44,0.00,,,0.00,Weather View 32 v70,2013-04-30 22:50:00,
2013-04-30 18:55:00,54.0,33.6,30.55,SSW,202,0.0,6.0,46,0.00,,,0.00,Weather View 32 v70,2013-04-30 22:55:00,
2013-04-30 19:00:00,54.0,34.7,30.56,SSW,202,0.0,6.0,48,0.00,,,0.00,Weather View 32 v70,2013-04-30 23:00:00,
2013-04-30 19:05:00,53.0,34.3,30.56,SSW,202,0.0,6.0,49,0.00,,,0.00,Weather View 32 v70,2013-04-30 23:05:00,
2013-04-30 19:10:00,53.0,36.3,30.56,SSW,202,0.0,6.0,53,0.00,,,0.00,Weather View 32 v70,2013-04-30 23:10:00,
2013-04-30 19:15:00,52.0,37.7,30.56,SSW,202,0.0,6.0,58,0.00,,,0.00,Weather View 32 v70,2013-04-30 23:15:00,
2013-04-30 19:20:00,52.0,36.8,30.56,SSW,202,0.0,6.0,56,0.00,,,0.00,Weather View 32 v70,2013-04-30 23:20:00,
2013-04-30 19:25:00,51.0,36.3,30.56,SSW,202,0.0,5.0,57,0.00,,,0.00,Weather View 32 v70,2013-04-30 23:25:00,
2013-04-30 19:30:00,51.0,36.7,30.58,SSW,202,0.0,5.0,58,0.00,,,0.00,Weather View 32 v70,2013-04-30 23:30:00,
2013-04-30 19:35:00,51.0,37.6,30.58,SSW,202,0.0,4.0,60,0.00,,,0.00,Weather View 32 v70,2013-04-30 23:35:00,
2013-04-30 19:40:00,50.0,38.3,30.58,SSW,202,0.0,4.0,64,0.00,,,0.00,Weather View 32 v70,2013-04-30 23:40:00,
2013-04-30 19:45:00,50.0,39.8,30.58,SSW,202,0.0,2.0,68,0.00,,,0.00,Weather View 32 v70,2013-04-30 23:45:00,
2013-04-30 19:50:00,49.0,40.0,30.58,SSW,202,0.0,2.0,71,0.00,,,0.00,Weather View 32 v70,2013-04-30 23:50:00,
2013-04-30 19:55:00,49.0,39.3,30.58,SSW,202,0.0,2.0,69,0.00,,,0.00,Weather View 32 v70,2013-04-30 23:55:00,
2013-04-30 20:00:00,49.0,38.9,30.58,SSW,202,0.0,2.0,68,0.00,,,0.00,Weather View 32 v70,2013-05-01 00:00:00,
2013-04-30 20:05:00,48.0,38.7,30.58,SSW,202,0.0,1.0,70,0.00,,,0.00,Weather View 32 v70,2013-05-01 00:05:00,
2013-04-30 20:10:00,48.0,38.7,30.59,SSW,202,0.0,1.0,70,0.00,,,0.00,Weather View 32 v70,2013-05-01 00:10:00,
2013-04-30 20:15:00,48.0,40.4,30.59,SSW,202,0.0,1.0,75,0.00,,,0.00,Weather View 32 v70,2013-05-01 00:15:00,
2013-04-30 20:20:00,48.0,40.1,30.59,SSW,202,0.0,1.0,74,0.00,,,0.00,Weather View 32 v70,2013-05-01 00:20:00,
2013-04-30 20:25:00,47.0,39.8,30.59,SSW,202,0.0,1.0,76,0.00,,,0.00,Weather View 32 v70,2013-05-01 00:25:00,
2013-04-30 20:30:00,47.0,39.8,30.60,SSW,202,0.0,1.0,76,0.00,,,0.00,Weather View 32 v70,2013-05-01 00:30:00,
2013-04-30 20:35:00,47.0,40.8,30.60,SSW,202,0.0,0.0,79,0.00,,,0.00,Weather View 32 v70,2013-05-01 00:35:00,
2013-04-30 20:40:00,47.0,40.8,30.60,SSW,202,0.0,0.0,79,0.00,,,0.00,Weather View 32 v70,2013-05-01 00:40:00,
2013-04-30 20:45:00,46.0,39.8,30.60,SSW,202,0.0,0.0,79,0.00,,,0.00,Weather View 32 v70,2013-05-01 00:45:00,
2013-04-30 20:50:00,46.0,39.8,30.60,SSW,202,0.0,0.0,79,0.00,,,0.00,Weather View 32 v70,2013-05-01 00:50:00,
2013-04-30 20:55:00,46.0,40.5,30.60,SSW,202,0.0,0.0,81,0.00,,,0.00,Weather View 32 v70,2013-05-01 00:55:00,
2013-04-30 21:00:00,46.0,39.8,30.61,SSW,202,0.0,0.0,79,0.00,,,0.00,Weather View 32 v70,2013-05-01 01:00:00,
2013-04-30 21:05:00,45.0,39.5,30.61,SSW,202,0.0,0.0,81,0.00,,,0.00,Weather View 32 v70,2013-05-01 01:05:00,
2013-04-30 21:10:00,45.0,39.5,30.62,SSW,202,0.0,0.0,81,0.00,,,0.00,Weather View 32 v70,2013-05-01 01:10:00,
2013-04-30 21:15:00,45.0,40.1,30.62,SSW,202,0.0,0.0,83,0.00,,,0.00,Weather View 32 v70,2013-05-01 01:15:00,
2013-04-30 21:20:00,45.0,38.9,30.62,SSW,202,0.0,0.0,79,0.00,,,0.00,Weather View 32 v70,2013-05-01 01:20:00,
2013-04-30 21:25:00,46.0,39.5,30.62,SSW,202,0.0,1.0,78,0.00,,,0.00,Weather View 32 v70,2013-05-01 01:25:00,
2013-04-30 21:30:00,46.0,39.8,30.61,SSW,202,0.0,1.0,79,0.00,,,0.00,Weather View 32 v70,2013-05-01 01:30:00,
2013-04-30 21:35:00,46.0,39.8,30.61,SSW,202,0.0,1.0,79,0.00,,,0.00,Weather View 32 v70,2013-05-01 01:35:00,
2013-04-30 21:40:00,46.0,40.2,30.61,SSW,202,0.0,1.0,80,0.00,,,0.00,Weather View 32 v70,2013-05-01 01:40:00,
2013-04-30 21:45:00,46.0,40.5,30.61,ESE,112,0.0,2.0,81,0.00,,,0.00,Weather View 32 v70,2013-05-01 01:45:00,
2013-04-30 21:50:00,45.0,39.5,30.61,ESE,112,0.0,2.0,81,0.00,,,0.00,Weather View 32 v70,2013-05-01 01:50:00,
2013-04-30 21:55:00,45.0,39.5,30.61,ESE,112,0.0,2.0,81,0.00,,,0.00,Weather View 32 v70,2013-05-01 01:55:00,
2013-04-30 22:00:00,45.0,39.5,30.61,ESE,112,0.0,2.0,81,0.00,,,0.00,Weather View 32 v70,2013-05-01 02:00:00,
2013-04-30 22:05:00,44.0,38.5,30.61,ESE,112,0.0,2.0,81,0.00,,,0.00,Weather View 32 v70,2013-05-01 02:05:00,
2013-04-30 22:10:00,44.0,39.8,30.62,ESE,112,0.0,2.0,85,0.00,,,0.00,Weather View 32 v70,2013-05-01 02:10:00,
2013-04-30 22:15:00,44.0,40.4,30.62,ESE,112,2.0,2.0,87,0.00,,,0.00,Weather View 32 v70,2013-05-01 02:15:00,
2013-04-30 22:20:00,44.0,39.8,30.62,ESE,112,1.0,2.0,85,0.00,,,0.00,Weather View 32 v70,2013-05-01 02:20:00,
2013-04-30 22:25:00,44.0,39.5,30.62,ESE,112,1.0,2.0,84,0.00,,,0.00,Weather View 32 v70,2013-05-01 02:25:00,
2013-04-30 22:30:00,44.0,39.2,30.62,ESE,112,1.0,2.0,83,0.00,,,0.00,Weather View 32 v70,2013-05-01 02:30:00,
2013-04-30 22:35:00,44.0,39.5,30.62,ESE,112,0.0,2.0,84,0.00,,,0.00,Weather View 32 v70,2013-05-01 02:35:00,
2013-04-30 22:40:00,44.0,39.5,30.62,ESE,112,0.0,2.0,84,0.00,,,0.00,Weather View 32 v70,2013-05-01 02:40:00,
2013-04-30 22:45:00,43.0,38.8,30.62,ESE,112,0.0,2.0,85,0.00,,,0.00,Weather View 32 v70,2013-05-01 02:45:00,
2013-04-30 22:50:00,43.0,38.8,30.62,ESE,112,0.0,2.0,85,0.00,,,0.00,Weather View 32 v70,2013-05-01 02:50:00,
2013-04-30 22:55:00,42.0,37.8,30.62,ESE,112,0.0,2.0,85,0.00,,,0.00,Weather View 32 v70,2013-05-01 02:55:00,
2013-04-30 23:00:00,42.0,37.8,30.63,ESE,112,0.0,2.0,85,0.00,,,0.00,Weather View 32 v70,2013-05-01 03:00:00,
2013-04-30 23:05:00,42.0,37.8,30.63,ESE,112,0.0,2.0,85,0.00,,,0.00,Weather View 32 v70,2013-05-01 03:05:00,
2013-04-30 23:10:00,42.0,36.9,30.62,ESE,112,0.0,2.0,82,0.00,,,0.00,Weather View 32 v70,2013-05-01 03:10:00,
2013-04-30 23:15:00,42.0,36.6,30.62,ESE,112,1.0,2.0,81,0.00,,,0.00,Weather View 32 v70,2013-05-01 03:15:00,
2013-04-30 23:20:00,43.0,37.9,30.62,ESE,112,1.0,2.0,82,0.00,,,0.00,Weather View 32 v70,2013-05-01 03:20:00,
2013-04-30 23:25:00,43.0,37.6,30.62,ESE,112,1.0,2.0,81,0.00,,,0.00,Weather View 32 v70,2013-05-01 03:25:00,
2013-04-30 23:30:00,43.0,37.6,30.62,ESE,112,0.0,1.0,81,0.00,,,0.00,Weather View 32 v70,2013-05-01 03:30:00,
2013-04-30 23:35:00,42.0,36.0,30.62,ESE,112,0.0,1.0,79,0.00,,,0.00,Weather View 32 v70,2013-05-01 03:35:00,
2013-04-30 23:40:00,42.0,36.6,30.62,ESE,112,0.0,1.0,81,0.00,,,0.00,Weather View 32 v70,2013-05-01 03:40:00,
2013-04-30 23:45:00,42.0,36.0,30.62,ESE,112,0.0,1.0,79,0.00,,,0.00,Weather View 32 v70,2013-05-01 03:45:00,
2013-04-30 23:50:00,42.0,35.3,30.62,ESE,112,1.0,1.0,77,0.00,,,0.00,Weather View 32 v70,2013-05-01 03:50:00,
2013-04-30 23:55:00,42.0,35.3,30.62,ESE,112,0.0,2.0,77,0.00,,,0.00,Weather View 32 v70,2013-05-01 03:55:00,